Time;durP1;ratioP1;P1;durP2;ratioP2;P2;SDS_P1;SDS_P2;PMS_P1;PMS_P2;Temp;Humidity;BMP_temperature;BMP_pressure;BME280_temperature;BME280_humidity;BME280_pressure;Samples;Min_cycle;Max_cycle;Signal;HPM_P1;HPM_P2
2020/12/11 00:03:06;;;;;;;31.33;14.38;;;0.40;99.90;;;;;;21070820;28;19912;-79
2020/12/11 00:13:07;;;;;;;;;;;0.30;99.90;;;;;;21089616;28;20031;-79
2020/12/11 00:23:08;;;;;;;32.70;15.23;;;0.20;99.90;;;;;;21088226;28;19919;-79
2020/12/11 00:33:09;;;;;;;29.33;14.60;;;0.10;99.90;;;;;;21084150;28;20482;-79
2020/12/11 00:43:10;;;;;;;27.83;13.90;;;-0.20;99.90;;;;;;21083213;28;20034;-79
2020/12/11 00:53:10;;;;;;;32.15;15.93;;;-0.30;99.90;;;;;;21081798;28;20069;-79
2020/12/11 01:03:12;;;;;;;30.35;14.55;;;-0.50;99.90;;;;;;21091220;28;20405;-78
2020/12/11 01:13:13;;;;;;;31.27;14.32;;;-0.40;99.90;;;;;;21081406;28;20036;-78
2020/12/11 01:23:14;;;;;;;39.78;17.17;;;-0.30;99.90;;;;;;21061679;28;20090;-77
2020/12/11 01:33:14;;;;;;;41.17;16.92;;;-0.60;99.90;;;;;;21079317;28;20112;-77
2020/12/11 01:43:20;;;;;;;43.58;16.77;;;-0.50;99.90;;;;;;21078280;28;20486;-78
2020/12/11 01:53:22;;;;;;;45.17;18.23;;;-0.50;99.90;;;;;;21041383;28;20084;-78
2020/12/11 02:03:24;;;;;;;41.85;19.50;;;-0.60;99.90;;;;;;21075753;28;20398;-78
2020/12/11 02:13:25;;;;;;;44.13;18.20;;;-0.60;99.90;;;;;;21073663;28;20490;-77
2020/12/11 02:23:25;;;;;;;44.58;18.95;;;-0.70;99.90;;;;;;21057536;28;20028;-78
2020/12/11 02:33:27;;;;;;;42.97;18.88;;;-0.80;99.90;;;;;;21075502;28;20035;-77
2020/12/11 02:43:37;;;;;;;45.70;18.65;;;-0.70;99.90;;;;;;21073390;28;20036;-77
2020/12/11 02:53:39;;;;;;;40.40;17.35;;;-0.70;99.90;;;;;;21075520;28;20240;-78
2020/12/11 03:03:40;;;;;;;41.33;19.33;;;-0.70;99.90;;;;;;21070713;28;20430;-78
2020/12/11 03:13:41;;;;;;;43.53;19.25;;;-0.80;99.90;;;;;;21091944;28;20554;-77
2020/12/11 03:23:41;;;;;;;39.38;17.63;;;-0.80;99.90;;;;;;21089603;28;20082;-77
2020/12/11 03:33:42;;;;;;;42.00;19.15;;;-0.90;99.90;;;;;;21092227;28;20024;-77
2020/12/11 03:43:43;;;;;;;48.22;20.17;;;-1.00;99.90;;;;;;21029315;22;20044;-79
2020/12/11 03:53:45;;;;;;;47.55;21.02;;;-1.00;99.90;;;;;;21000792;28;20032;-80
2020/12/11 04:03:47;;;;;;;48.83;19.05;;;-0.90;99.90;;;;;;20984044;28;20044;-80
2020/12/11 04:13:48;;;;;;;44.30;21.10;;;-0.80;99.90;;;;;;20991760;28;20115;-79
2020/12/11 04:23:49;;;;;;;42.45;19.25;;;-0.80;99.90;;;;;;20986613;28;20036;-79
2020/12/11 04:33:50;;;;;;;48.65;19.60;;;-0.80;99.90;;;;;;21023479;28;20090;-78
2020/12/11 04:43:51;;;;;;;43.47;19.42;;;-1.00;99.90;;;;;;21066935;28;20385;-79
2020/12/11 04:53:52;;;;;;;44.90;20.42;;;-0.90;99.90;;;;;;21076119;28;20039;-82
2020/12/11 05:03:54;;;;;;;45.45;20.13;;;-0.80;99.90;;;;;;21063503;28;20482;-81
2020/12/11 05:13:55;;;;;;;46.50;19.38;;;-0.90;99.90;;;;;;21079799;28;20036;-81
2020/12/11 05:24:00;;;;;;;46.15;19.42;;;-0.90;99.90;;;;;;21093132;28;20038;-79
2020/12/11 05:34:04;;;;;;;45.95;20.35;;;-0.90;99.90;;;;;;21094279;28;20024;-77
2020/12/11 05:44:24;;;;;;;48.17;21.10;;;-0.80;99.90;;;;;;21078398;28;20032;-77
2020/12/11 05:54:25;;;;;;;44.80;20.67;;;-0.80;99.90;;;;;;21077739;28;20028;-78
2020/12/11 06:04:26;;;;;;;45.20;20.33;;;-0.90;99.90;;;;;;21058636;28;20056;-77
2020/12/11 06:15:05;;;;;;;47.35;21.08;;;-0.80;99.90;;;;;;21076202;28;20368;-78
2020/12/11 06:25:28;;;;;;;46.63;21.33;;;-0.70;99.90;;;;;;21044096;28;20044;-77
2020/12/11 06:35:29;;;;;;;49.55;22.58;;;-0.70;99.90;;;;;;21074886;28;20170;-78
2020/12/11 06:45:30;;;;;;;52.72;22.58;;;-0.60;99.90;;;;;;21073685;28;20169;-78
2020/12/11 06:55:50;;;;;;;51.08;22.60;;;-0.60;99.90;;;;;;20954369;28;20028;-78
2020/12/11 07:05:58;;;;;;;48.10;21.92;;;-0.50;99.90;;;;;;20893718;28;20029;-78
2020/12/11 07:16:00;;;;;;;50.28;21.60;;;-0.50;99.90;;;;;;20911343;28;20033;-75
2020/12/11 07:26:03;;;;;;;44.38;20.75;;;-0.40;99.90;;;;;;20907094;28;20028;-79
2020/12/11 07:36:04;;;;;;;48.80;20.88;;;0.30;99.90;;;;;;20910883;28;20387;-79
2020/12/11 07:46:05;;;;;;;48.38;21.33;;;-0.10;99.90;;;;;;20916858;28;20510;-80
2020/12/11 07:56:09;;;;;;;42.08;19.27;;;-0.10;99.90;;;;;;20928804;28;20045;-79
2020/12/11 08:06:11;;;;;;;52.97;20.95;;;-0.10;99.90;;;;;;20929320;28;20093;-79
2020/12/11 08:16:20;;;;;;;50.13;20.50;;;-0.10;99.90;;;;;;20929306;28;20094;-79
2020/12/11 08:26:22;;;;;;;36.70;18.40;;;0.00;99.90;;;;;;20924795;28;20025;-79
2020/12/11 08:36:27;;;;;;;36.38;18.40;;;0.20;99.90;;;;;;20920429;28;20032;-79
2020/12/11 08:56:44;;;;;;;38.78;18.00;;;0.50;99.90;;;;;;20917829;28;20040;-79
2020/12/11 09:06:45;;;;;;;44.97;20.67;;;0.40;99.90;;;;;;20920077;28;20589;-79
2020/12/11 09:16:46;;;;;;;42.15;19.67;;;0.40;99.90;;;;;;20920818;28;20033;-80
2020/12/11 09:26:47;;;;;;;43.83;19.30;;;0.50;99.90;;;;;;20918607;28;20460;-80
2020/12/11 09:47:24;;;;;;;40.03;18.70;;;0.70;99.90;;;;;;20869037;23;20388;-75
2020/12/11 09:57:21;;;;;;;39.45;18.25;;;0.80;99.90;;;;;;20828836;28;20087;-75
2020/12/11 10:07:22;;;;;;;;;;;1.20;99.90;;;;;;20826730;28;20037;-75
2020/12/11 10:17:23;;;;;;;37.65;17.00;;;1.40;99.90;;;;;;20827518;28;19992;-75
2020/12/11 10:27:23;;;;;;;;;;;1.50;99.90;;;;;;20825964;28;20069;-74
2020/12/11 10:37:25;;;;;;;37.28;18.33;;;1.80;99.90;;;;;;20826161;28;20015;-74
2020/12/11 10:47:25;;;;;;;;;;;1.80;99.90;;;;;;20826016;28;20492;-75
2020/12/11 10:57:26;;;;;;;40.50;19.05;;;1.50;99.90;;;;;;20825231;28;19909;-74
2020/12/11 11:07:29;;;;;;;;;;;1.30;99.90;;;;;;20825238;28;20036;-74
2020/12/11 11:37:38;;;;;;;54.30;20.45;;;0.90;99.90;;;;;;20839258;28;20038;-74
2020/12/11 11:47:41;;;;;;;;;;;1.00;99.90;;;;;;20838518;28;20021;-74
2020/12/11 11:57:42;;;;;;;42.67;19.73;;;1.10;99.90;;;;;;20837876;28;19967;-74
2020/12/11 12:07:43;;;;;;;;;;;1.30;99.90;;;;;;20836484;28;20029;-74
2020/12/11 12:48:39;;;;;;;46.50;20.48;;;0.90;99.90;;;;;;20833733;28;20040;-73
2020/12/11 12:58:43;;;;;;;43.55;19.20;;;0.70;99.90;;;;;;20833510;28;20394;-73
2020/12/11 13:08:44;;;;;;;51.60;22.15;;;0.70;99.90;;;;;;20814780;28;20037;-73
2020/12/11 13:18:44;;;;;;;62.13;24.77;;;0.50;99.90;;;;;;20833349;28;20124;-73
2020/12/11 13:28:45;;;;;;;57.72;23.20;;;0.40;99.90;;;;;;20831061;28;20555;-73
2020/12/11 13:38:46;;;;;;;56.90;22.58;;;0.30;99.90;;;;;;20827055;28;20041;-73
2020/12/11 13:48:47;;;;;;;70.07;24.88;;;0.40;99.90;;;;;;20791203;28;20069;-73
2020/12/11 13:58:48;;;;;;;72.07;24.70;;;0.30;99.90;;;;;;20800421;28;20434;-76
2020/12/11 14:08:48;;;;;;;70.63;25.77;;;0.30;99.90;;;;;;20744818;28;20045;-73
2020/12/11 14:18:53;;;;;;;66.22;25.05;;;0.30;99.90;;;;;;20787997;28;20037;-72
2020/12/11 14:28:54;;;;;;;73.07;26.60;;;0.30;99.90;;;;;;20788874;28;20037;-73
2020/12/11 14:48:57;;;;;;;66.25;25.75;;;0.40;99.90;;;;;;20805802;28;20033;-74
2020/12/11 14:58:58;;;;;;;56.40;23.05;;;0.40;99.90;;;;;;20805330;28;20037;-73
2020/12/11 15:08:59;;;;;;;64.43;24.52;;;0.30;99.90;;;;;;20804579;28;20040;-73
2020/12/11 15:19:00;;;;;;;58.75;23.17;;;0.30;99.90;;;;;;20803477;28;20037;-73
2020/12/11 15:29:01;;;;;;;73.47;25.20;;;0.30;99.90;;;;;;20796665;28;20083;-73
2020/12/11 15:39:05;;;;;;;67.10;25.80;;;0.40;99.90;;;;;;20810188;22;20037;-78
2020/12/11 15:49:06;;;;;;;79.72;25.58;;;0.40;99.90;;;;;;20936449;28;20033;-78
2020/12/11 15:59:06;;;;;;;74.82;26.70;;;0.30;99.90;;;;;;20910348;28;20592;-77
2020/12/11 16:09:07;;;;;;;75.50;26.20;;;0.40;99.90;;;;;;20914646;28;20048;-77
2020/12/11 16:19:08;;;;;;;81.07;26.52;;;0.40;99.90;;;;;;20934485;28;20029;-77
2020/12/11 16:29:09;;;;;;;62.20;23.38;;;0.50;99.90;;;;;;20929575;28;20035;-78
2020/12/11 16:39:10;;;;;;;62.50;23.90;;;0.50;99.90;;;;;;20930397;28;20041;-77
2020/12/11 16:49:15;;;;;;;67.43;25.73;;;0.50;99.90;;;;;;20918189;28;20411;-78
2020/12/11 16:59:19;;;;;;;58.47;23.48;;;0.60;99.90;;;;;;20863497;28;20034;-77
2020/12/11 17:09:20;;;;;;;68.13;25.10;;;0.50;99.90;;;;;;20842128;28;20057;-77
2020/12/11 17:19:21;;;;;;;83.80;28.77;;;0.40;99.90;;;;;;20848715;28;20029;-78
2020/12/11 17:29:23;;;;;;;76.32;26.17;;;0.50;99.90;;;;;;20882459;28;20082;-78
2020/12/11 17:39:24;;;;;;;82.18;27.83;;;0.50;99.90;;;;;;20937673;28;20048;-78
2020/12/11 17:49:26;;;;;;;75.03;26.65;;;0.60;99.90;;;;;;20929324;28;20111;-78
2020/12/11 17:59:27;;;;;;;79.03;26.75;;;0.50;99.90;;;;;;20949031;28;20033;-78
2020/12/11 18:09:28;;;;;;;77.72;27.77;;;0.60;99.90;;;;;;20941890;28;20039;-77
2020/12/11 18:19:29;;;;;;;93.38;30.13;;;0.60;99.90;;;;;;20909636;28;20096;-77
2020/12/11 18:29:44;;;;;;;79.63;27.13;;;0.60;99.90;;;;;;20967751;28;20044;-79
2020/12/11 18:39:44;;;;;;;74.03;27.65;;;0.60;99.90;;;;;;20863916;28;20079;-79
2020/12/11 18:49:47;;;;;;;73.95;25.40;;;0.70;99.90;;;;;;20866084;28;20033;-80
2020/12/11 18:59:48;;;;;;;87.78;28.55;;;0.70;99.90;;;;;;20872154;28;20095;-79
2020/12/11 19:09:49;;;;;;;86.63;27.88;;;0.60;99.90;;;;;;20946821;28;20032;-80
2020/12/11 19:19:49;;;;;;;84.50;27.90;;;0.60;99.90;;;;;;20946852;28;20110;-77
2020/12/11 19:29:50;;;;;;;76.85;26.33;;;0.70;99.90;;;;;;20942666;28;20033;-79
2020/12/11 19:39:51;;;;;;;77.15;25.27;;;0.80;99.90;;;;;;20929506;28;20040;-80
2020/12/11 19:49:52;;;;;;;70.35;25.92;;;0.80;99.90;;;;;;20958982;28;20078;-80
2020/12/11 19:59:53;;;;;;;79.82;27.50;;;0.70;99.90;;;;;;20970117;28;20048;-79
2020/12/11 20:09:54;;;;;;;78.97;26.08;;;0.70;99.90;;;;;;20978352;28;20029;-79
2020/12/11 20:19:54;;;;;;;69.93;24.63;;;0.70;99.90;;;;;;20972383;28;20032;-80
2020/12/11 20:29:55;;;;;;;68.47;23.77;;;0.70;99.90;;;;;;20988577;28;20033;-80
2020/12/11 20:39:56;;;;;;;73.40;26.58;;;0.80;99.90;;;;;;20992114;28;20032;-80
2020/12/11 20:49:57;;;;;;;76.95;28.17;;;0.80;99.90;;;;;;20976359;28;20057;-81
2020/12/11 20:59:59;;;;;;;89.03;27.98;;;0.70;99.90;;;;;;20950297;28;20047;-81
2020/12/11 21:10:04;;;;;;;81.22;27.30;;;0.70;99.90;;;;;;20945414;28;20442;-82
2020/12/11 21:20:06;;;;;;;94.43;30.23;;;0.70;99.90;;;;;;20952113;28;20123;-81
2020/12/11 21:30:17;;;;;;;81.72;28.40;;;0.70;99.90;;;;;;20932711;28;20116;-79
2020/12/11 21:40:20;;;;;;;85.57;30.15;;;0.70;99.90;;;;;;20952938;28;20130;-80
2020/12/11 21:50:23;;;;;;;92.20;30.60;;;0.70;99.90;;;;;;20982430;28;20048;-79
2020/12/11 22:00:24;;;;;;;96.80;30.10;;;0.70;99.90;;;;;;20988555;28;20059;-80
2020/12/11 22:10:25;;;;;;;93.85;31.85;;;0.70;99.90;;;;;;20985837;28;20033;-80
2020/12/11 22:20:26;;;;;;;83.82;28.20;;;0.70;99.90;;;;;;20994811;28;20032;-80
2020/12/11 22:30:27;;;;;;;82.40;28.77;;;0.80;99.90;;;;;;20974823;28;20039;-80
2020/12/11 22:40:28;;;;;;;84.88;29.98;;;0.70;99.90;;;;;;20987029;28;20037;-79
2020/12/11 22:50:28;;;;;;;87.80;29.63;;;0.70;99.90;;;;;;20988809;28;20021;-81
2020/12/11 23:00:31;;;;;;;96.78;31.20;;;0.70;99.90;;;;;;20985810;28;20029;-80
2020/12/11 23:10:31;;;;;;;91.65;31.42;;;0.70;99.90;;;;;;20986729;28;20040;-80
2020/12/11 23:20:32;;;;;;;91.53;30.15;;;0.60;99.90;;;;;;20979010;28;20473;-79
2020/12/11 23:30:34;;;;;;;95.10;33.03;;;0.70;99.90;;;;;;20931998;28;20063;-79
2020/12/11 23:40:35;;;;;;;92.55;31.48;;;0.70;99.90;;;;;;20940372;28;20845;-79
2020/12/11 23:50:36;;;;;;;78.40;29.98;;;0.70;99.90;;;;;;20909788;28;20127;-79
